CheckWX is a tool to help pilots better visualize weather data.  It is not intended as a substitute for an official pre-flight weather briefing.

17:27:35 UTC

EDQM TAF
Hof-Plauen Airport
Hof, Germany
TAF EDQM 181400Z 1815/1824 15005KT CAVOK BECMG 1816/1818 VRB03KT

Jun-18@
15:00 UTC

Jun-18 @ 15:00 UTC

Jun-18@
16:00 UTC

Jun-18 @ 16:00 UTC

TAF EDQM 181400Z 1815/1824 15005KT CAVOK

Expired

Wind
  • 150° at 5 KTS
Conditions
No significant weather
Cloud Levels
  • No significant clouds

Jun-18@
16:00 UTC

Jun-18 @ 16:00 UTC

Jun-19@
00:00 UTC

Jun-19 @ 00:00 UTC

BECMG 1816/1818 VRB03KT

Becoming

Becoming Conditions expected by Tue, Jun 18, 2019 @ 18:00 UTC

Wind
  • Variable at 3 KTS
Conditions
No significant weather
Cloud Levels
  • No significant clouds